Time;durP1;ratioP1;P1;durP2;ratioP2;P2;SDS_P1;SDS_P2;PMS_P1;PMS_P2;Temp;Humidity;BMP_temperature;BMP_pressure;BME280_temperature;BME280_humidity;BME280_pressure;Samples;Min_cycle;Max_cycle;Signal;HPM_P1;HPM_P2
2021/10/08 00:01:39;;;;;;;9.43;6.60;;;10.30;99.90;;;;;;4918972;29;20036;-72
2021/10/08 00:04:05;;;;;;;7.35;5.95;;;10.30;99.90;;;;;;4918760;29;20028;-72
2021/10/08 00:06:31;;;;;;;7.88;5.80;;;10.40;99.90;;;;;;4918262;29;20020;-72
2021/10/08 00:08:57;;;;;;;9.13;6.00;;;10.40;99.90;;;;;;4918950;29;20032;-72
2021/10/08 00:11:23;;;;;;;14.18;6.47;;;10.50;99.90;;;;;;4919282;29;20386;-72
2021/10/08 00:13:49;;;;;;;8.63;6.65;;;10.50;99.90;;;;;;4916356;29;20029;-72
2021/10/08 00:16:15;;;;;;;9.25;6.45;;;10.50;99.90;;;;;;4899066;29;20435;-72
2021/10/08 00:18:41;;;;;;;11.45;7.35;;;10.50;99.90;;;;;;4899909;29;20031;-72
2021/10/08 00:21:08;;;;;;;11.90;6.72;;;10.60;99.90;;;;;;4900120;29;20374;-72
2021/10/08 00:23:34;;;;;;;7.78;6.72;;;10.60;99.90;;;;;;4899855;29;20029;-72
2021/10/08 00:25:59;;;;;;;7.97;6.45;;;10.60;99.90;;;;;;4898957;29;20506;-72
2021/10/08 00:28:25;;;;;;;9.18;6.35;;;10.50;99.90;;;;;;4899732;29;20060;-72
2021/10/08 00:30:51;;;;;;;6.95;5.50;;;10.60;99.90;;;;;;4899257;29;20041;-71
2021/10/08 00:33:17;;;;;;;11.25;6.65;;;10.60;99.90;;;;;;4899578;29;20480;-72
2021/10/08 00:35:43;;;;;;;12.27;6.57;;;10.60;99.90;;;;;;4899085;29;20028;-73
2021/10/08 00:38:09;;;;;;;8.32;6.00;;;10.60;99.90;;;;;;4899811;29;20483;-73
2021/10/08 00:40:41;;;;;;;8.13;6.45;;;10.70;99.90;;;;;;4899598;29;20423;-72
2021/10/08 00:43:08;;;;;;;8.38;6.35;;;10.70;99.90;;;;;;4899594;29;20084;-73
2021/10/08 00:45:34;;;;;;;7.88;6.85;;;10.60;99.90;;;;;;4914434;29;20048;-72
2021/10/08 00:48:07;;;;;;;7.93;6.78;;;10.60;99.90;;;;;;4918353;29;20040;-72
2021/10/08 00:50:38;;;;;;;9.38;6.28;;;10.50;99.90;;;;;;4917993;29;20123;-71
2021/10/08 00:53:05;;;;;;;12.55;7.28;;;10.50;99.90;;;;;;4917597;29;20075;-72
2021/10/08 00:55:39;;;;;;;7.72;6.97;;;10.30;99.90;;;;;;4917522;29;20055;-72
2021/10/08 00:58:05;;;;;;;8.10;7.30;;;10.30;99.90;;;;;;4917966;29;20027;-73
2021/10/08 01:00:31;;;;;;;8.35;6.60;;;10.30;99.90;;;;;;4917901;29;20088;-73
2021/10/08 01:02:57;;;;;;;8.75;6.95;;;10.30;99.90;;;;;;4916682;29;20032;-71
2021/10/08 01:05:22;;;;;;;9.00;6.55;;;10.30;99.90;;;;;;4917029;29;20371;-71
2021/10/08 01:07:49;;;;;;;10.77;7.25;;;10.30;99.90;;;;;;4916736;29;20036;-72
2021/10/08 01:10:15;;;;;;;11.07;6.65;;;10.20;99.90;;;;;;4917769;29;20028;-72
2021/10/08 01:12:41;;;;;;;10.80;6.30;;;10.20;99.90;;;;;;4917789;29;20044;-72
2021/10/08 01:15:08;;;;;;;11.27;6.13;;;10.30;99.90;;;;;;4916663;29;20169;-72
2021/10/08 01:17:33;;;;;;;6.18;5.60;;;10.20;99.90;;;;;;4917598;29;20032;-73
2021/10/08 01:20:05;;;;;;;8.95;6.38;;;10.40;99.90;;;;;;4917583;29;20028;-72
2021/10/08 01:22:31;;;;;;;9.25;6.63;;;10.40;99.90;;;;;;4917537;29;20028;-72
2021/10/08 01:24:56;;;;;;;7.82;5.80;;;10.40;99.90;;;;;;4915730;29;20059;-73
2021/10/08 01:27:22;;;;;;;7.22;5.85;;;10.50;99.90;;;;;;4917643;29;20570;-72
2021/10/08 01:29:53;;;;;;;7.55;6.85;;;10.30;99.90;;;;;;4917543;29;20028;-71
2021/10/08 01:32:20;;;;;;;8.18;6.30;;;10.20;99.90;;;;;;4917412;29;20024;-72
2021/10/08 01:34:46;;;;;;;9.60;6.82;;;10.20;99.90;;;;;;4916854;29;20036;-73
2021/10/08 01:37:16;;;;;;;7.18;6.50;;;10.10;99.90;;;;;;4920779;29;20367;-72
2021/10/08 01:39:42;;;;;;;9.18;7.30;;;9.90;99.90;;;;;;4919306;29;20028;-72
2021/10/08 01:42:07;;;;;;;9.30;6.90;;;9.90;99.90;;;;;;4917377;29;20054;-71
2021/10/08 01:44:33;;;;;;;9.57;7.57;;;9.60;99.90;;;;;;4917029;29;20039;-72
2021/10/08 01:46:59;;;;;;;10.77;8.35;;;9.60;99.90;;;;;;4917587;29;20068;-72
2021/10/08 01:49:24;;;;;;;13.45;7.50;;;9.50;99.90;;;;;;4917804;29;20020;-72
2021/10/08 01:51:50;;;;;;;10.77;8.48;;;9.50;99.90;;;;;;4917447;29;20024;-73
2021/10/08 01:54:16;;;;;;;11.70;8.48;;;9.40;99.90;;;;;;4908716;29;20500;-71
2021/10/08 01:56:44;;;;;;;11.20;8.10;;;9.30;99.90;;;;;;4898050;29;20079;-71
2021/10/08 01:59:11;;;;;;;15.05;7.50;;;9.20;99.90;;;;;;4898045;29;20020;-71
2021/10/08 02:01:37;;;;;;;13.13;8.73;;;9.10;99.90;;;;;;4898000;29;20373;-73
2021/10/08 02:04:02;;;;;;;12.88;8.55;;;9.00;99.90;;;;;;4896975;29;20035;-71
2021/10/08 02:06:28;;;;;;;11.00;8.05;;;9.00;99.90;;;;;;4897456;29;20660;-73
2021/10/08 02:08:54;;;;;;;11.48;7.70;;;8.90;99.90;;;;;;4897467;29;20442;-71
2021/10/08 02:11:20;;;;;;;9.75;8.32;;;8.90;99.90;;;;;;4897650;29;20021;-71
2021/10/08 02:13:45;;;;;;;16.42;9.18;;;8.90;99.90;;;;;;4897765;29;20459;-72
2021/10/08 02:16:11;;;;;;;12.88;9.55;;;8.80;99.90;;;;;;4896946;29;20024;-73
2021/10/08 02:18:37;;;;;;;16.98;9.63;;;8.80;99.90;;;;;;4897776;29;20032;-71
2021/10/08 02:21:03;;;;;;;13.55;9.13;;;8.80;99.90;;;;;;4897612;29;20040;-71
2021/10/08 02:23:29;;;;;;;12.85;9.50;;;8.70;99.90;;;;;;4898572;29;20064;-73
2021/10/08 02:25:55;;;;;;;17.15;10.82;;;8.70;99.90;;;;;;4915488;29;20032;-73
2021/10/08 02:28:20;;;;;;;13.93;10.40;;;8.70;99.90;;;;;;4916214;29;20016;-73
2021/10/08 02:30:46;;;;;;;11.82;9.75;;;8.60;99.90;;;;;;4915153;29;20052;-73
2021/10/08 02:33:12;;;;;;;12.20;9.45;;;8.50;99.90;;;;;;4916219;29;20490;-72
2021/10/08 02:35:37;;;;;;;14.95;10.02;;;8.50;99.90;;;;;;4915371;29;20027;-72
2021/10/08 02:38:04;;;;;;;17.52;10.73;;;8.50;99.90;;;;;;4914767;29;20127;-72
2021/10/08 02:40:30;;;;;;;17.80;10.98;;;8.40;99.90;;;;;;4915906;29;20054;-73
2021/10/08 02:42:56;;;;;;;15.82;10.65;;;8.40;99.90;;;;;;4916050;29;20058;-72
2021/10/08 02:45:21;;;;;;;13.90;9.98;;;8.40;99.90;;;;;;4914965;29;20032;-72
2021/10/08 02:47:47;;;;;;;16.40;10.68;;;8.40;99.90;;;;;;4915980;29;20020;-73
2021/10/08 02:50:13;;;;;;;15.88;10.55;;;8.40;99.90;;;;;;4905028;29;20065;-73
2021/10/08 02:52:39;;;;;;;18.88;10.07;;;8.30;99.90;;;;;;4911112;29;20032;-72
2021/10/08 02:55:06;;;;;;;16.80;9.85;;;8.20;99.90;;;;;;4914983;29;20039;-73
2021/10/08 02:57:32;;;;;;;16.98;11.70;;;8.30;99.90;;;;;;4913399;29;20028;-72
2021/10/08 02:59:58;;;;;;;18.75;11.02;;;8.20;99.90;;;;;;4896495;29;20640;-72
2021/10/08 03:02:24;;;;;;;15.07;11.30;;;8.20;99.90;;;;;;4897091;29;20483;-73
2021/10/08 03:04:49;;;;;;;16.65;10.82;;;8.10;99.90;;;;;;4896120;29;20634;-72
2021/10/08 03:07:15;;;;;;;17.23;11.68;;;8.10;99.90;;;;;;4896652;29;20582;-73
2021/10/08 03:09:40;;;;;;;17.13;11.00;;;8.10;99.90;;;;;;4897059;29;20483;-74
2021/10/08 03:12:06;;;;;;;23.10;13.00;;;8.00;99.90;;;;;;4897252;29;20507;-73
2021/10/08 03:14:32;;;;;;;17.63;12.30;;;8.00;99.90;;;;;;4895814;29;20061;-73
2021/10/08 03:16:58;;;;;;;15.32;11.70;;;8.00;99.90;;;;;;4896945;29;20028;-72
2021/10/08 03:19:23;;;;;;;13.20;10.63;;;8.00;99.90;;;;;;4896698;29;20084;-73
2021/10/08 03:21:49;;;;;;;13.48;10.93;;;7.90;99.90;;;;;;4896617;29;20421;-72
2021/10/08 03:24:15;;;;;;;15.80;10.82;;;7.90;99.90;;;;;;4903123;29;20032;-74
2021/10/08 03:26:40;;;;;;;16.92;12.05;;;7.90;99.90;;;;;;4915406;29;20479;-72
2021/10/08 03:29:06;;;;;;;18.70;13.20;;;7.90;99.90;;;;;;4914302;29;20479;-72
2021/10/08 03:31:33;;;;;;;20.02;12.00;;;7.80;99.90;;;;;;4915599;29;20513;-72
2021/10/08 03:33:59;;;;;;;17.13;11.88;;;7.80;99.90;;;;;;4914195;29;20107;-74
2021/10/08 03:36:48;;;;;;;14.18;11.15;;;7.80;99.90;;;;;;4913114;29;20488;-72
2021/10/08 03:39:14;;;;;;;16.02;11.38;;;7.70;99.90;;;;;;4915306;29;20040;-72
2021/10/08 03:41:42;;;;;;;15.75;11.40;;;7.70;99.90;;;;;;4914237;29;20028;-72
2021/10/08 03:44:10;;;;;;;15.95;12.10;;;7.70;99.90;;;;;;4915339;29;20052;-72
2021/10/08 03:46:44;;;;;;;16.05;10.95;;;7.60;99.90;;;;;;4914975;29;20108;-73
2021/10/08 03:49:13;;;;;;;16.60;12.65;;;7.60;99.90;;;;;;4915614;29;20024;-72
2021/10/08 03:51:39;;;;;;;16.35;12.40;;;7.60;99.90;;;;;;4915225;29;20025;-72
2021/10/08 03:54:05;;;;;;;18.42;12.85;;;7.60;99.90;;;;;;4914978;29;20372;-73
2021/10/08 03:56:31;;;;;;;16.80;12.23;;;7.60;99.90;;;;;;4914665;29;20083;-72
2021/10/08 03:58:58;;;;;;;17.65;13.00;;;7.50;99.90;;;;;;4914173;29;20036;-73
2021/10/08 04:01:24;;;;;;;22.98;12.27;;;7.50;99.90;;;;;;4915120;29;20042;-72
2021/10/08 04:03:50;;;;;;;25.58;14.05;;;7.50;99.90;;;;;;4915246;29;20024;-74
2021/10/08 04:06:16;;;;;;;20.65;13.45;;;7.40;99.90;;;;;;4913854;29;20032;-73
2021/10/08 04:08:42;;;;;;;18.20;13.25;;;7.40;99.90;;;;;;4914269;29;20036;-73
2021/10/08 04:11:08;;;;;;;19.42;12.77;;;7.40;99.90;;;;;;4915485;29;20026;-73
2021/10/08 04:13:34;;;;;;;21.00;14.13;;;7.30;99.90;;;;;;4915461;29;20025;-73
2021/10/08 04:16:00;;;;;;;19.50;12.48;;;7.40;99.90;;;;;;4908285;29;20429;-80
2021/10/08 04:18:25;;;;;;;27.13;13.52;;;7.30;99.90;;;;;;4918938;29;20075;-78
2021/10/08 04:20:51;;;;;;;19.42;12.45;;;7.30;99.90;;;;;;4925654;29;20048;-77
2021/10/08 04:23:17;;;;;;;19.23;13.52;;;7.30;99.90;;;;;;4926072;29;20039;-78
2021/10/08 04:25:43;;;;;;;22.17;14.43;;;7.20;99.90;;;;;;4924892;29;20032;-79
2021/10/08 04:28:09;;;;;;;19.95;13.85;;;7.30;99.90;;;;;;4929679;29;20084;-80
2021/10/08 04:30:35;;;;;;;20.77;13.75;;;7.30;99.90;;;;;;4931474;29;20032;-78
2021/10/08 04:33:01;;;;;;;21.88;14.38;;;7.30;99.90;;;;;;4921603;29;20079;-77
2021/10/08 04:35:26;;;;;;;33.65;15.52;;;7.30;99.90;;;;;;4918481;29;20029;-77
2021/10/08 04:37:52;;;;;;;28.58;15.00;;;7.20;99.90;;;;;;4919535;29;20028;-78
2021/10/08 04:40:18;;;;;;;26.35;13.70;;;7.20;99.90;;;;;;4919686;29;20056;-78
2021/10/08 04:42:44;;;;;;;27.23;14.40;;;7.20;99.90;;;;;;4920569;29;20028;-79
2021/10/08 04:45:09;;;;;;;22.92;14.57;;;7.20;99.90;;;;;;4940351;23;20498;-76
2021/10/08 04:47:35;;;;;;;25.52;15.40;;;7.20;99.90;;;;;;4917574;29;20027;-76
2021/10/08 04:50:01;;;;;;;22.02;14.82;;;7.20;99.90;;;;;;4917492;29;20032;-74
2021/10/08 04:52:26;;;;;;;25.85;15.93;;;7.20;99.90;;;;;;4917602;29;20027;-75
2021/10/08 04:54:52;;;;;;;23.83;14.85;;;7.20;99.90;;;;;;4917101;29;20040;-76
2021/10/08 04:57:18;;;;;;;24.15;15.10;;;7.20;99.90;;;;;;4917631;29;20043;-75
2021/10/08 04:59:44;;;;;;;23.13;15.73;;;7.20;99.90;;;;;;4917249;29;20510;-77
2021/10/08 05:02:09;;;;;;;23.17;15.20;;;7.30;99.90;;;;;;4917438;29;20030;-77
2021/10/08 05:04:35;;;;;;;25.48;15.57;;;7.40;99.90;;;;;;4915846;29;20040;-76
2021/10/08 05:07:01;;;;;;;22.13;14.98;;;7.50;99.90;;;;;;4917668;29;20422;-76
2021/10/08 05:09:26;;;;;;;26.15;15.88;;;7.60;99.90;;;;;;4918029;29;20083;-78
2021/10/08 05:11:52;;;;;;;27.40;15.38;;;7.60;99.90;;;;;;4917282;29;20032;-77
2021/10/08 05:14:18;;;;;;;30.48;16.95;;;7.60;99.90;;;;;;4916381;29;20616;-78
2021/10/08 05:16:44;;;;;;;23.42;15.82;;;7.70;99.90;;;;;;4916629;29;20056;-75
2021/10/08 05:19:10;;;;;;;22.05;15.38;;;7.80;99.90;;;;;;4916899;29;20122;-74
2021/10/08 05:21:35;;;;;;;22.73;15.43;;;7.70;99.90;;;;;;4917436;29;20047;-75
2021/10/08 05:24:01;;;;;;;23.60;14.63;;;7.70;99.90;;;;;;4917081;29;20039;-76
2021/10/08 05:26:27;;;;;;;21.55;15.18;;;7.70;99.90;;;;;;4915762;29;20036;-76
2021/10/08 05:28:53;;;;;;;22.33;15.50;;;7.70;99.90;;;;;;4916681;29;20052;-75
2021/10/08 05:31:18;;;;;;;22.17;14.80;;;7.60;99.90;;;;;;4916491;29;20490;-75
2021/10/08 05:33:44;;;;;;;22.77;14.82;;;7.60;99.90;;;;;;4916710;29;20510;-75
2021/10/08 05:36:10;;;;;;;25.90;15.85;;;7.60;99.90;;;;;;4916116;29;20111;-74
2021/10/08 05:38:36;;;;;;;22.50;15.15;;;7.50;99.90;;;;;;4916692;29;20087;-75
2021/10/08 05:41:02;;;;;;;22.77;14.57;;;7.40;99.90;;;;;;4916213;29;20092;-77
2021/10/08 05:43:28;;;;;;;29.25;15.85;;;7.50;99.90;;;;;;4915943;29;20039;-75
2021/10/08 05:45:54;;;;;;;32.72;15.65;;;7.50;99.90;;;;;;4915826;29;20028;-77
2021/10/08 05:48:20;;;;;;;26.65;14.90;;;7.40;99.90;;;;;;4916543;29;20035;-76
2021/10/08 05:50:45;;;;;;;22.65;15.88;;;7.50;99.90;;;;;;4917009;29;20020;-76
2021/10/08 05:53:11;;;;;;;26.55;15.85;;;7.50;99.90;;;;;;4917387;29;20399;-76
2021/10/08 05:55:38;;;;;;;24.38;15.13;;;7.50;99.90;;;;;;4914990;29;20103;-77
2021/10/08 05:58:08;;;;;;;26.23;16.30;;;7.50;99.90;;;;;;4917126;29;20127;-75
2021/10/08 06:00:37;;;;;;;25.50;17.02;;;7.60;99.90;;;;;;4916473;29;20063;-76
2021/10/08 06:03:04;;;;;;;27.90;17.75;;;7.60;99.90;;;;;;4916387;29;20032;-76
2021/10/08 06:05:34;;;;;;;31.60;18.92;;;7.60;99.90;;;;;;4914672;29;20178;-75
2021/10/08 06:08:00;;;;;;;31.20;18.88;;;7.80;99.90;;;;;;4915267;29;20024;-74
2021/10/08 06:10:26;;;;;;;24.52;16.90;;;8.00;99.90;;;;;;4915970;29;20479;-75
2021/10/08 06:12:51;;;;;;;26.15;16.88;;;8.00;99.90;;;;;;4915242;29;20032;-77
2021/10/08 06:15:17;;;;;;;26.58;17.30;;;8.20;99.90;;;;;;4915319;29;20035;-74
2021/10/08 06:17:43;;;;;;;23.65;16.67;;;8.30;99.90;;;;;;4916436;29;20159;-76
2021/10/08 06:20:09;;;;;;;25.70;16.17;;;8.30;99.90;;;;;;4915175;29;20078;-75
2021/10/08 06:22:39;;;;;;;23.50;16.63;;;8.40;99.90;;;;;;4909978;29;20024;-75
2021/10/08 06:25:06;;;;;;;20.20;14.95;;;8.30;99.90;;;;;;4913817;29;20024;-75
2021/10/08 06:27:32;;;;;;;19.85;12.70;;;8.30;99.90;;;;;;4916555;29;20028;-76
2021/10/08 06:29:58;;;;;;;17.30;12.82;;;8.50;99.90;;;;;;4915897;29;20031;-75
2021/10/08 06:32:23;;;;;;;17.08;13.27;;;8.50;99.90;;;;;;4912483;29;20027;-76
2021/10/08 06:34:49;;;;;;;15.55;12.40;;;8.80;99.90;;;;;;4907575;29;20039;-74
2021/10/08 06:37:15;;;;;;;20.05;13.85;;;8.80;99.90;;;;;;4916108;29;20060;-75
2021/10/08 06:39:41;;;;;;;16.25;12.55;;;8.80;99.90;;;;;;4915644;29;20024;-75
2021/10/08 06:42:06;;;;;;;16.25;11.50;;;8.70;99.90;;;;;;4916246;29;20050;-75
2021/10/08 06:44:32;;;;;;;17.27;11.57;;;8.70;99.90;;;;;;4914379;29;20039;-77
2021/10/08 06:46:58;;;;;;;12.95;10.65;;;8.70;99.90;;;;;;4915872;29;20438;-76
2021/10/08 06:49:24;;;;;;;12.73;10.38;;;8.80;99.90;;;;;;4915223;29;20025;-74
2021/10/08 06:51:49;;;;;;;19.92;13.07;;;8.90;99.90;;;;;;4915217;29;20050;-75
2021/10/08 06:54:15;;;;;;;15.20;12.10;;;9.00;99.90;;;;;;4915225;29;20389;-76
2021/10/08 06:56:41;;;;;;;17.73;12.73;;;9.10;99.90;;;;;;4908893;29;20038;-77
2021/10/08 06:59:06;;;;;;;16.55;11.68;;;9.10;99.90;;;;;;4911285;29;20027;-75
2021/10/08 07:01:32;;;;;;;16.92;12.85;;;9.20;99.90;;;;;;4915338;29;20676;-75
2021/10/08 07:03:58;;;;;;;18.00;11.55;;;9.40;99.90;;;;;;4915825;29;20036;-77
2021/10/08 07:06:23;;;;;;;15.45;12.50;;;9.40;99.90;;;;;;4912691;29;20039;-76
2021/10/08 07:08:49;;;;;;;16.00;11.68;;;9.50;99.90;;;;;;4910480;29;20061;-75
2021/10/08 07:11:15;;;;;;;13.80;11.10;;;9.70;99.90;;;;;;4903668;29;20028;-77
2021/10/08 07:13:40;;;;;;;11.73;10.45;;;9.50;99.90;;;;;;4915603;29;20024;-77
2021/10/08 07:16:07;;;;;;;12.38;9.45;;;9.50;99.90;;;;;;4915790;29;20039;-76
2021/10/08 07:18:37;;;;;;;11.50;9.93;;;9.50;99.90;;;;;;4916023;29;20514;-78
2021/10/08 07:21:04;;;;;;;10.80;9.70;;;9.50;99.90;;;;;;4916590;29;20020;-77
2021/10/08 07:23:33;;;;;;;9.95;8.68;;;9.50;99.90;;;;;;4916052;29;20035;-77
2021/10/08 07:25:59;;;;;;;13.48;9.43;;;9.60;99.90;;;;;;4915077;29;20032;-74
2021/10/08 07:28:24;;;;;;;11.02;8.88;;;9.80;99.90;;;;;;4915815;29;20496;-75
2021/10/08 07:30:50;;;;;;;16.35;8.00;;;10.00;99.90;;;;;;4915852;29;20103;-74
2021/10/08 07:33:16;;;;;;;9.32;8.32;;;10.10;99.90;;;;;;4916626;29;20483;-75
2021/10/08 07:35:42;;;;;;;14.95;8.55;;;10.20;99.90;;;;;;4916212;29;20036;-75
2021/10/08 07:38:08;;;;;;;10.15;9.05;;;10.10;99.90;;;;;;4915549;29;20457;-76
2021/10/08 07:40:34;;;;;;;13.95;8.77;;;10.30;99.90;;;;;;4916103;29;20036;-74
2021/10/08 07:42:59;;;;;;;10.13;8.93;;;10.40;99.90;;;;;;4916278;29;20388;-74
2021/10/08 07:45:25;;;;;;;11.10;8.73;;;10.50;99.90;;;;;;4913060;29;20127;-76
2021/10/08 07:47:51;;;;;;;13.18;8.70;;;10.60;99.90;;;;;;4916781;29;20067;-77
2021/10/08 07:50:17;;;;;;;12.60;9.52;;;10.80;99.90;;;;;;4916120;29;20031;-77
2021/10/08 07:52:42;;;;;;;13.15;9.00;;;11.20;99.90;;;;;;4915390;29;20024;-77
2021/10/08 07:55:10;;;;;;;11.93;8.93;;;11.50;99.90;;;;;;4914713;29;20032;-75
2021/10/08 07:57:37;;;;;;;9.45;8.25;;;11.80;99.90;;;;;;4915701;29;20024;-74
2021/10/08 08:00:08;;;;;;;11.82;10.25;;;12.00;99.90;;;;;;4914711;29;20111;-76
2021/10/08 08:02:33;;;;;;;9.20;7.78;;;12.00;99.90;;;;;;4918529;29;20029;-75
2021/10/08 08:04:59;;;;;;;8.95;7.68;;;11.90;99.90;;;;;;4918039;29;20035;-77
2021/10/08 08:07:25;;;;;;;12.48;8.20;;;11.90;99.90;;;;;;4919152;29;20072;-76
2021/10/08 08:09:51;;;;;;;9.45;7.45;;;12.40;99.90;;;;;;4909442;29;20052;-74
2021/10/08 08:12:17;;;;;;;9.18;7.03;;;12.60;99.90;;;;;;4918976;29;20041;-76
2021/10/08 08:14:43;;;;;;;7.88;6.47;;;12.60;99.90;;;;;;4916618;29;20036;-75
2021/10/08 08:17:09;;;;;;;7.70;6.30;;;13.00;99.90;;;;;;4918592;29;20040;-74
2021/10/08 08:19:35;;;;;;;9.90;7.20;;;13.20;99.90;;;;;;4918614;29;20100;-74
2021/10/08 08:22:00;;;;;;;9.70;6.60;;;13.60;99.90;;;;;;4917628;29;20415;-75
2021/10/08 08:24:26;;;;;;;7.80;6.35;;;14.30;99.90;;;;;;4917664;29;20028;-74
2021/10/08 08:26:52;;;;;;;7.45;6.72;;;14.70;99.90;;;;;;4918311;29;20024;-78
2021/10/08 08:29:18;;;;;;;6.63;6.00;;;14.50;99.90;;;;;;4917801;29;20470;-74
2021/10/08 08:31:44;;;;;;;6.43;5.53;;;14.80;99.90;;;;;;4918497;29;20107;-76
2021/10/08 08:34:09;;;;;;;7.53;6.07;;;15.10;99.90;;;;;;4916808;29;20441;-76
2021/10/08 08:36:35;;;;;;;7.57;5.63;;;15.30;99.90;;;;;;4917306;29;20028;-76
2021/10/08 08:39:07;;;;;;;9.73;5.50;;;15.40;99.90;;;;;;4918019;29;20035;-75
2021/10/08 08:41:32;;;;;;;8.43;6.05;;;15.70;99.90;;;;;;4918208;29;20080;-75
2021/10/08 08:43:58;;;;;;;7.97;6.15;;;16.10;99.90;;;;;;4918109;29;20036;-76
2021/10/08 08:46:24;;;;;;;7.95;6.80;;;15.90;99.90;;;;;;4917479;29;20032;-75
2021/10/08 08:48:50;;;;;;;6.65;5.95;;;15.60;99.90;;;;;;4917492;29;20470;-75
2021/10/08 08:51:16;;;;;;;9.35;7.00;;;15.50;99.90;;;;;;4904555;29;20024;-74
2021/10/08 08:53:42;;;;;;;9.32;7.05;;;15.70;99.90;;;;;;4898843;29;20076;-76
2021/10/08 08:56:08;;;;;;;7.53;6.47;;;16.00;99.90;;;;;;4898205;29;20033;-76
2021/10/08 08:58:34;;;;;;;8.77;6.53;;;16.50;99.90;;;;;;4904845;29;20483;-74
2021/10/08 09:01:01;;;;;;;7.85;5.50;;;16.60;99.90;;;;;;4901459;29;20027;-73
2021/10/08 09:03:28;;;;;;;7.57;5.65;;;16.50;99.90;;;;;;4917308;29;20020;-75
2021/10/08 09:05:54;;;;;;;7.22;6.57;;;16.30;99.90;;;;;;4916856;29;20032;-75
2021/10/08 09:08:29;;;;;;;7.90;6.40;;;16.10;99.90;;;;;;4917441;29;20490;-76
2021/10/08 09:10:59;;;;;;;10.55;7.35;;;15.50;99.90;;;;;;4917889;29;20386;-74
2021/10/08 09:13:27;;;;;;;9.15;7.53;;;14.90;99.90;;;;;;4916789;29;20111;-76
2021/10/08 09:15:55;;;;;;;10.18;7.65;;;14.60;99.90;;;;;;4916670;29;20032;-75
2021/10/08 09:18:24;;;;;;;13.50;7.82;;;14.40;99.90;;;;;;4917550;29;20475;-76
2021/10/08 09:21:21;;;;;;;9.68;8.15;;;14.50;99.90;;;;;;4920250;29;20459;-75
2021/10/08 09:23:49;;;;;;;10.82;8.48;;;14.50;99.90;;;;;;4920560;29;20044;-74
2021/10/08 09:26:23;;;;;;;8.32;7.43;;;14.80;99.90;;;;;;4918045;29;20035;-75
2021/10/08 09:28:59;;;;;;;9.40;8.00;;;15.00;99.90;;;;;;4918628;29;20034;-75
2021/10/08 09:31:37;;;;;;;8.60;6.75;;;15.50;99.90;;;;;;4917562;29;20024;-73
2021/10/08 09:34:21;;;;;;;8.55;7.43;;;16.00;99.90;;;;;;4917533;29;20038;-74
2021/10/08 09:36:53;;;;;;;10.40;6.88;;;16.10;99.90;;;;;;4917205;29;20035;-75
2021/10/08 09:39:28;;;;;;;10.48;7.00;;;16.30;99.90;;;;;;4917393;29;20028;-75
2021/10/08 09:42:01;;;;;;;9.85;6.72;;;16.50;99.90;;;;;;4916201;29;20040;-75
2021/10/08 09:44:29;;;;;;;8.50;7.07;;;16.60;99.90;;;;;;4916315;29;20036;-77
2021/10/08 09:47:08;;;;;;;8.57;6.35;;;17.10;99.90;;;;;;4917004;29;20025;-76
2021/10/08 09:49:33;;;;;;;7.20;5.82;;;17.00;99.90;;;;;;4917114;29;20033;-76
2021/10/08 09:51:59;;;;;;;7.55;5.93;;;17.00;99.90;;;;;;4917288;29;20035;-75
2021/10/08 09:54:27;;;;;;;12.07;6.13;;;16.90;99.90;;;;;;4916576;29;20028;-74
2021/10/08 09:57:00;;;;;;;11.38;5.97;;;16.80;99.90;;;;;;4916765;29;20020;-74
2021/10/08 09:59:39;;;;;;;8.10;5.95;;;16.50;99.90;;;;;;4916441;29;20028;-74
2021/10/08 10:02:05;;;;;;;9.13;6.13;;;16.60;99.90;;;;;;4916870;29;20027;-72
2021/10/08 10:04:51;;;;;;;7.28;6.28;;;16.60;99.90;;;;;;4914389;29;20028;-73
2021/10/08 10:07:24;;;;;;;6.88;4.80;;;16.60;99.90;;;;;;4916550;29;20024;-73
2021/10/08 10:09:50;;;;;;;8.48;6.20;;;16.60;99.90;;;;;;4915306;29;20578;-74
2021/10/08 10:12:20;;;;;;;10.30;5.63;;;16.70;99.90;;;;;;4916554;29;20034;-75
2021/10/08 10:14:48;;;;;;;6.43;5.32;;;16.60;99.90;;;;;;4915533;29;20102;-74
2021/10/08 10:17:16;;;;;;;7.55;5.65;;;16.50;99.90;;;;;;4906863;29;20394;-74
2021/10/08 10:19:45;;;;;;;11.43;6.70;;;16.70;99.90;;;;;;4905225;29;20056;-73
2021/10/08 10:22:15;;;;;;;7.93;6.30;;;16.40;99.90;;;;;;4905998;29;20059;-76
2021/10/08 10:24:46;;;;;;;11.10;6.35;;;15.90;99.90;;;;;;4912263;29;20066;-74
2021/10/08 10:27:14;;;;;;;7.93;6.32;;;15.70;99.90;;;;;;4914199;29;20054;-73
2021/10/08 10:29:41;;;;;;;9.27;6.50;;;15.70;99.90;;;;;;4917568;29;20020;-73
2021/10/08 10:32:08;;;;;;;7.85;5.57;;;16.20;99.90;;;;;;4915365;29;20040;-73
2021/10/08 10:34:38;;;;;;;9.93;6.60;;;16.50;99.90;;;;;;4914450;29;20024;-73
2021/10/08 10:37:06;;;;;;;8.15;6.28;;;16.40;99.90;;;;;;4915291;29;20027;-75
2021/10/08 10:39:32;;;;;;;8.95;5.75;;;16.40;99.90;;;;;;4916097;29;20510;-73
2021/10/08 10:42:01;;;;;;;5.28;4.78;;;17.00;99.90;;;;;;4915736;29;20027;-73
2021/10/08 10:44:37;;;;;;;9.57;5.63;;;17.50;99.90;;;;;;4915625;29;20039;-74
2021/10/08 10:47:33;;;;;;;6.05;5.50;;;18.00;99.90;;;;;;4915926;29;20044;-75
2021/10/08 10:50:40;;;;;;;7.43;6.03;;;18.40;99.90;;;;;;4915527;29;20063;-75
2021/10/08 10:53:05;;;;;;;33.83;7.75;;;18.00;99.90;;;;;;4942691;23;20140;-78
2021/10/08 10:55:34;;;;;;;10.80;6.03;;;18.20;99.90;;;;;;4904684;29;20108;-79
2021/10/08 10:58:05;;;;;;;8.88;6.28;;;19.00;99.90;;;;;;4898502;29;20035;-78
2021/10/08 11:00:36;;;;;;;5.77;5.03;;;18.90;99.90;;;;;;4899530;29;20032;-78
2021/10/08 11:03:13;;;;;;;11.57;5.80;;;18.90;99.90;;;;;;4898720;29;20479;-79
2021/10/08 11:05:42;;;;;;;6.95;5.75;;;19.50;99.90;;;;;;4903452;29;20032;-79
2021/10/08 11:08:16;;;;;;;9.98;6.63;;;18.90;99.90;;;;;;4918694;29;20032;-80
2021/10/08 11:10:58;;;;;;;13.48;7.28;;;18.70;99.90;;;;;;4918755;29;20024;-79
2021/10/08 11:13:28;;;;;;;;;;;17.80;99.90;;;;;;4918514;29;20028;-80
2021/10/08 11:15:55;;;;;;;17.00;8.13;;;17.70;99.90;;;;;;4931961;29;19911;-78
2021/10/08 11:18:43;;;;;;;11.82;7.32;;;17.30;99.90;;;;;;4919426;29;20028;-79
2021/10/08 11:21:25;;;;;;;7.88;7.07;;;16.90;99.90;;;;;;4924429;29;20024;-79
2021/10/08 11:23:51;;;;;;;21.55;8.30;;;16.60;99.90;;;;;;4920501;29;20035;-78
2021/10/08 11:26:17;;;;;;;7.93;6.28;;;17.00;99.90;;;;;;4915907;29;20036;-84
2021/10/08 11:28:45;;;;;;;10.68;5.95;;;17.80;99.90;;;;;;4920583;29;20087;-79
2021/10/08 11:31:21;;;;;;;7.22;6.43;;;18.90;99.90;;;;;;4916394;29;20039;-79
2021/10/08 11:33:55;;;;;;;8.82;6.07;;;18.90;99.90;;;;;;4916392;29;20123;-79
2021/10/08 11:36:31;;;;;;;37.85;9.10;;;19.30;99.90;;;;;;4916539;29;20398;-79
2021/10/08 11:39:15;;;;;;;8.75;6.20;;;18.60;99.90;;;;;;4918672;29;20495;-78
2021/10/08 11:41:56;;;;;;;8.77;6.85;;;18.90;99.90;;;;;;4916817;29;20103;-78
2021/10/08 11:44:25;;;;;;;7.78;6.80;;;18.90;99.90;;;;;;4922207;29;20028;-78
2021/10/08 11:47:17;;;;;;;9.75;6.70;;;17.90;99.90;;;;;;4922195;29;20022;-79
2021/10/08 11:52:36;;;;;;;9.18;6.93;;;18.20;99.90;;;;;;4919292;29;20120;-78
2021/10/08 11:55:07;;;;;;;7.60;6.20;;;18.00;99.90;;;;;;4919059;29;20107;-79
2021/10/08 11:57:51;;;;;;;19.40;8.45;;;17.90;99.90;;;;;;4918114;29;20487;-79
2021/10/08 12:00:18;;;;;;;15.07;7.72;;;18.40;99.90;;;;;;4919081;29;20073;-79
2021/10/08 12:02:57;;;;;;;8.35;6.90;;;18.50;99.90;;;;;;4917749;29;20028;-79
2021/10/08 12:05:23;;;;;;;11.95;7.18;;;18.40;99.90;;;;;;4918642;29;20622;-80
2021/10/08 12:08:02;;;;;;;10.00;6.75;;;18.00;99.90;;;;;;4919536;29;20103;-79
2021/10/08 12:10:28;;;;;;;9.32;7.65;;;18.20;99.90;;;;;;4920151;29;20226;-80
2021/10/08 12:12:56;;;;;;;11.07;6.93;;;18.10;99.90;;;;;;4918689;29;20088;-80
2021/10/08 12:15:25;;;;;;;9.77;7.45;;;18.20;99.90;;;;;;4929001;29;20035;-80
2021/10/08 12:17:53;;;;;;;11.75;7.82;;;18.30;99.90;;;;;;4934318;29;20047;-78
2021/10/08 12:20:28;;;;;;;10.75;6.75;;;18.20;99.90;;;;;;4932546;29;20024;-82
2021/10/08 12:23:23;;;;;;;7.85;6.90;;;18.20;99.90;;;;;;4938738;29;20024;-80
2021/10/08 12:25:52;;;;;;;10.18;7.10;;;18.60;99.90;;;;;;4933573;29;20024;-81
2021/10/08 12:28:23;;;;;;;8.02;6.20;;;18.30;99.90;;;;;;4921800;29;20024;-79
2021/10/08 12:31:05;;;;;;;8.98;6.22;;;18.10;99.90;;;;;;4922543;29;20024;-78
2021/10/08 12:33:42;;;;;;;10.45;6.97;;;17.80;99.90;;;;;;4919224;29;20029;-79
2021/10/08 12:36:26;;;;;;;11.60;8.00;;;17.50;99.90;;;;;;4918540;29;20490;-79
2021/10/08 12:38:59;;;;;;;25.88;9.20;;;17.40;99.90;;;;;;4921128;29;20028;-80
2021/10/08 12:41:51;;;;;;;9.55;8.05;;;17.40;99.90;;;;;;4922098;29;20024;-80
2021/10/08 12:44:21;;;;;;;10.63;7.15;;;17.40;99.90;;;;;;4916824;29;20075;-78
2021/10/08 12:47:13;;;;;;;11.48;7.78;;;17.20;99.90;;;;;;4917925;29;20043;-78
2021/10/08 12:49:56;;;;;;;16.85;7.72;;;17.60;99.90;;;;;;4918370;29;20020;-79